createdAt,value
2022-09-14T00:01:14.241Z,19.10
2022-09-14T00:03:40.959Z,18.87
2022-09-14T00:06:08.408Z,18.90
2022-09-14T00:08:35.660Z,18.64
2022-09-14T00:11:09.879Z,18.47
2022-09-14T00:13:36.605Z,18.74
2022-09-14T00:16:04.754Z,18.59
2022-09-14T00:18:31.827Z,18.61
2022-09-14T00:21:03.767Z,18.61
2022-09-14T00:23:30.729Z,18.71
2022-09-14T00:26:02.867Z,18.59
2022-09-14T00:28:30.006Z,18.62
2022-09-14T00:30:56.674Z,18.50
2022-09-14T00:33:24.163Z,18.46
2022-09-14T00:35:51.176Z,18.38
2022-09-14T00:38:17.855Z,18.25
2022-09-14T00:40:44.543Z,18.54
2022-09-14T00:43:14.930Z,18.56
2022-09-14T00:45:41.730Z,18.44
2022-09-14T00:48:08.528Z,18.28
2022-09-14T00:50:35.896Z,18.22
2022-09-14T00:53:02.939Z,18.36
2022-09-14T00:55:29.712Z,18.27
2022-09-14T00:57:56.769Z,18.40
2022-09-14T01:00:24.548Z,18.10
2022-09-14T01:02:51.409Z,18.12
2022-09-14T01:05:19.382Z,17.96
2022-09-14T01:07:58.888Z,18.18
2022-09-14T01:10:25.857Z,18.35
2022-09-14T01:13:11.439Z,18.13
2022-09-14T01:15:38.420Z,18.09
2022-09-14T01:18:09.564Z,18.07
2022-09-14T01:20:54.172Z,18.07
2022-09-14T01:23:27.650Z,18.16
2022-09-14T01:26:10.020Z,17.90
2022-09-14T01:28:43.502Z,17.81
2022-09-14T01:31:14.511Z,18.01
2022-09-14T01:33:47.091Z,17.93
2022-09-14T01:36:13.924Z,17.76
2022-09-14T01:38:42.477Z,17.58
2022-09-14T01:41:12.908Z,17.74
2022-09-14T01:43:43.721Z,17.85
2022-09-14T01:46:12.438Z,17.91
2022-09-14T01:48:41.342Z,17.85
2022-09-14T01:51:08.822Z,17.83
2022-09-14T01:53:37.851Z,17.79
2022-09-14T01:56:15.351Z,17.73
2022-09-14T01:58:47.244Z,18.03
2022-09-14T02:01:15.778Z,17.97
2022-09-14T02:03:44.922Z,17.82
2022-09-14T02:06:32.861Z,17.96
2022-09-14T02:09:00.344Z,17.96
2022-09-14T02:11:27.336Z,17.56
2022-09-14T02:13:54.004Z,17.55
2022-09-14T02:16:21.302Z,17.51
2022-09-14T02:18:48.257Z,17.67
2022-09-14T02:21:18.625Z,17.86
2022-09-14T02:23:46.244Z,17.71
2022-09-14T02:26:13.179Z,17.59
2022-09-14T02:28:39.954Z,17.54
2022-09-14T02:31:06.748Z,17.66
2022-09-14T02:33:54.783Z,17.54
2022-09-14T02:36:37.096Z,17.85
2022-09-14T02:39:22.893Z,17.59
2022-09-14T02:42:01.609Z,17.36
2022-09-14T02:44:35.311Z,17.45
2022-09-14T02:47:15.716Z,17.44
2022-09-14T02:49:50.949Z,17.37
2022-09-14T02:52:40.059Z,17.70
2022-09-14T02:55:08.144Z,17.92
2022-09-14T02:57:54.779Z,17.91
2022-09-14T03:00:21.744Z,17.73
2022-09-14T03:02:48.460Z,17.36
2022-09-14T03:05:15.270Z,17.44
2022-09-14T03:07:42.236Z,17.91
2022-09-14T03:10:09.028Z,17.47
2022-09-14T03:12:37.636Z,17.47
2022-09-14T03:15:05.101Z,17.24
2022-09-14T03:17:32.047Z,17.78
2022-09-14T03:19:58.778Z,17.54
2022-09-14T03:22:25.728Z,17.62
2022-09-14T03:24:52.422Z,17.83
2022-09-14T03:27:19.164Z,17.94
2022-09-14T03:29:46.539Z,17.77
2022-09-14T03:32:14.623Z,17.94
2022-09-14T03:34:41.313Z,17.64
2022-09-14T03:37:08.518Z,17.79
2022-09-14T03:39:35.219Z,17.99
2022-09-14T03:42:01.913Z,18.09
2022-09-14T03:44:29.109Z,18.18
2022-09-14T03:46:56.075Z,17.84
2022-09-14T03:49:22.901Z,17.91
2022-09-14T03:51:49.897Z,17.81
2022-09-14T03:54:16.747Z,17.79
2022-09-14T03:56:43.409Z,17.64
2022-09-14T03:59:10.421Z,17.89
2022-09-14T04:01:38.134Z,17.94
2022-09-14T04:04:05.212Z,17.95
2022-09-14T04:06:32.753Z,18.22
2022-09-14T04:09:00.093Z,17.85
2022-09-14T04:11:28.213Z,17.88
2022-09-14T04:13:54.928Z,17.95
2022-09-14T04:16:23.356Z,17.86
2022-09-14T04:18:50.373Z,18.05
2022-09-14T04:21:18.726Z,18.05
2022-09-14T04:24:10.542Z,18.15
2022-09-14T04:26:32.912Z,17.89
2022-09-14T04:28:59.576Z,18.12
2022-09-14T04:31:26.377Z,17.92
2022-09-14T04:33:54.217Z,18.01
2022-09-14T04:36:22.498Z,18.07
2022-09-14T04:38:52.334Z,18.03
2022-09-14T04:41:20.549Z,17.97
2022-09-14T04:43:47.816Z,17.97
2022-09-14T04:46:15.593Z,17.85
2022-09-14T04:48:42.841Z,17.82
2022-09-14T04:51:19.686Z,17.73
2022-09-14T04:53:47.516Z,17.98
2022-09-14T04:56:14.594Z,18.23
2022-09-14T04:58:51.396Z,18.25
2022-09-14T05:01:19.674Z,17.67
2022-09-14T05:03:46.426Z,18.00
2022-09-14T05:06:17.061Z,18.02
2022-09-14T05:08:44.319Z,18.33
2022-09-14T05:11:12.475Z,18.21
2022-09-14T05:13:46.259Z,18.47
2022-09-14T05:16:20.624Z,18.28
2022-09-14T05:18:47.884Z,18.34
2022-09-14T05:21:15.989Z,18.27
2022-09-14T05:23:42.975Z,18.54
2022-09-14T05:26:09.767Z,18.51
2022-09-14T05:28:36.675Z,18.46
2022-09-14T05:31:04.649Z,18.71
2022-09-14T05:33:31.406Z,18.83
2022-09-14T05:36:08.160Z,18.80
2022-09-14T05:38:35.905Z,18.80
2022-09-14T05:41:02.643Z,19.10
2022-09-14T05:43:29.508Z,19.09
2022-09-14T05:45:56.609Z,19.16
2022-09-14T05:48:23.342Z,19.00
2022-09-14T05:50:50.047Z,18.83
2022-09-14T05:53:17.003Z,19.24
2022-09-14T05:55:43.676Z,19.40
2022-09-14T05:58:11.147Z,19.36
2022-09-14T06:00:39.529Z,19.50
2022-09-14T06:03:07.480Z,19.46
2022-09-14T06:05:35.660Z,19.53
2022-09-14T06:08:02.641Z,19.79
2022-09-14T06:10:29.605Z,19.91
2022-09-14T06:12:56.294Z,19.96
2022-09-14T06:15:24.669Z,19.87
2022-09-14T06:17:51.712Z,20.01
2022-09-14T06:20:30.203Z,20.07
2022-09-14T06:23:03.139Z,19.98
2022-09-14T06:25:31.275Z,20.10
2022-09-14T06:27:57.959Z,20.01
2022-09-14T06:30:25.107Z,20.21
2022-09-14T06:32:51.822Z,19.92
2022-09-14T06:35:18.566Z,20.16
2022-09-14T06:37:46.015Z,20.31
2022-09-14T06:40:12.869Z,20.10
2022-09-14T06:42:39.600Z,20.26
2022-09-14T06:45:06.876Z,20.11
2022-09-14T06:47:33.717Z,20.27
2022-09-14T06:50:00.890Z,20.28
2022-09-14T06:52:31.699Z,20.12
2022-09-14T06:55:00.401Z,20.36
2022-09-14T06:57:27.361Z,20.32
2022-09-14T06:59:54.135Z,20.13
2022-09-14T07:02:21.315Z,20.09
2022-09-14T07:04:48.384Z,20.14
2022-09-14T07:07:15.569Z,20.11
2022-09-14T07:09:42.302Z,20.15
2022-09-14T07:12:09.795Z,20.27
2022-09-14T07:14:36.852Z,20.09
2022-09-14T07:17:03.569Z,20.14
2022-09-14T07:19:30.589Z,20.15
2022-09-14T07:21:57.285Z,19.86
2022-09-14T07:24:23.951Z,20.09
2022-09-14T07:26:50.921Z,19.69
2022-09-14T07:29:18.579Z,19.90
2022-09-14T07:31:48.329Z,19.75
2022-09-14T07:34:15.424Z,20.00
2022-09-14T07:36:42.356Z,20.08
2022-09-14T07:39:10.120Z,20.16
2022-09-14T07:41:37.227Z,20.04
2022-09-14T07:44:05.109Z,20.19
2022-09-14T07:46:37.149Z,20.28
2022-09-14T07:49:05.058Z,20.37
2022-09-14T07:51:32.052Z,20.56
2022-09-14T07:54:00.833Z,20.59
2022-09-14T07:56:28.045Z,20.60
2022-09-14T07:59:11.419Z,20.53
2022-09-14T08:01:43.900Z,20.55
2022-09-14T08:04:10.594Z,20.64
2022-09-14T08:06:37.357Z,20.69
2022-09-14T08:09:05.972Z,20.73
2022-09-14T08:11:32.624Z,20.69
2022-09-14T08:14:00.079Z,20.74
2022-09-14T08:16:28.431Z,20.73
2022-09-14T08:18:55.867Z,20.84
2022-09-14T08:21:22.823Z,20.86
2022-09-14T08:23:49.526Z,20.87
2022-09-14T08:26:17.342Z,20.95
2022-09-14T08:28:43.983Z,20.97
2022-09-14T08:31:14.785Z,21.11
2022-09-14T08:33:45.121Z,21.20
2022-09-14T08:36:13.009Z,21.27
2022-09-14T08:38:39.567Z,21.34
2022-09-14T08:41:11.577Z,21.44
2022-09-14T08:43:38.821Z,21.37
2022-09-14T08:46:05.895Z,21.69
2022-09-14T08:48:36.549Z,21.63
2022-09-14T08:51:03.842Z,21.83
2022-09-14T08:53:30.492Z,22.18
2022-09-14T08:56:00.981Z,22.25
2022-09-14T08:58:47.544Z,22.47
2022-09-14T09:01:20.757Z,22.53
2022-09-14T09:03:56.709Z,22.22
2022-09-14T09:06:23.317Z,22.48
2022-09-14T09:09:22.354Z,22.51
2022-09-14T09:11:49.646Z,22.58
2022-09-14T09:14:42.330Z,22.61
2022-09-14T09:17:38.297Z,22.14
2022-09-14T09:20:07.056Z,22.61
2022-09-14T09:22:36.299Z,22.82
2022-09-14T09:25:03.212Z,22.78
2022-09-14T09:27:29.782Z,22.63
2022-09-14T09:29:56.317Z,22.69
2022-09-14T09:32:26.672Z,22.54
2022-09-14T09:34:55.257Z,22.81
2022-09-14T09:37:23.808Z,22.58
2022-09-14T09:39:51.183Z,22.72
2022-09-14T09:42:20.842Z,22.74
2022-09-14T09:44:58.044Z,23.15
2022-09-14T09:47:30.297Z,22.87
2022-09-14T09:49:58.551Z,23.12
2022-09-14T09:52:25.436Z,23.14
2022-09-14T09:54:52.675Z,23.45
2022-09-14T09:57:21.354Z,23.26
2022-09-14T09:59:48.599Z,23.55
2022-09-14T10:02:18.336Z,23.50
2022-09-14T10:05:04.078Z,23.76
2022-09-14T10:07:31.813Z,23.70
2022-09-14T10:10:00.202Z,23.87
2022-09-14T10:12:27.168Z,24.06
2022-09-14T10:15:03.949Z,24.19
2022-09-14T10:17:30.949Z,24.44
2022-09-14T10:19:58.334Z,24.33
2022-09-14T10:22:32.508Z,24.35
2022-09-14T10:25:02.811Z,24.27
2022-09-14T10:27:37.984Z,24.30
2022-09-14T10:30:18.721Z,24.29
2022-09-14T10:33:05.655Z,24.39
2022-09-14T10:35:35.725Z,24.62
2022-09-14T10:38:08.774Z,24.62
2022-09-14T10:40:39.323Z,24.57
2022-09-14T10:43:10.690Z,24.81
2022-09-14T10:45:49.758Z,24.68
2022-09-14T10:48:25.506Z,24.48
2022-09-14T10:50:58.861Z,24.59
2022-09-14T10:53:43.644Z,24.40
2022-09-14T10:56:13.373Z,24.75
2022-09-14T10:58:43.319Z,24.79
2022-09-14T11:01:10.319Z,24.75
2022-09-14T11:03:52.050Z,24.50
2022-09-14T11:06:28.267Z,24.42
2022-09-14T11:09:02.298Z,24.39
2022-09-14T11:11:32.044Z,24.62
2022-09-14T11:14:02.283Z,24.71
2022-09-14T11:16:29.282Z,24.82
2022-09-14T11:19:03.050Z,24.60
2022-09-14T11:21:30.066Z,24.72
2022-09-14T11:24:02.826Z,24.74
2022-09-14T11:26:38.057Z,24.56
2022-09-14T11:29:18.458Z,24.72
2022-09-14T11:32:19.258Z,24.67
2022-09-14T11:34:43.916Z,24.37
2022-09-14T11:37:12.324Z,24.58
2022-09-14T11:39:43.419Z,24.66
2022-09-14T11:42:24.031Z,24.59
2022-09-14T11:44:52.960Z,24.80
2022-09-14T11:47:20.632Z,24.88
2022-09-14T11:49:55.176Z,24.67
2022-09-14T11:52:26.128Z,24.86
2022-09-14T11:54:53.307Z,24.87
2022-09-14T11:57:27.016Z,25.11
2022-09-14T11:59:55.507Z,25.15
2022-09-14T12:02:25.155Z,25.18
2022-09-14T12:05:07.491Z,24.99
2022-09-14T12:07:40.583Z,25.25
2022-09-14T12:10:17.929Z,25.44
2022-09-14T12:12:48.873Z,25.44
2022-09-14T12:15:17.575Z,25.57
2022-09-14T12:17:45.323Z,25.40
2022-09-14T12:20:31.172Z,25.67
2022-09-14T12:23:10.583Z,25.80
2022-09-14T12:25:37.843Z,26.00
2022-09-14T12:28:20.331Z,25.96
2022-09-14T12:30:47.035Z,26.18
2022-09-14T12:33:32.730Z,26.32
2022-09-14T12:35:59.822Z,26.43
2022-09-14T12:38:29.907Z,26.32
2022-09-14T12:40:59.728Z,26.38
2022-09-14T12:43:32.707Z,26.49
2022-09-14T12:46:03.804Z,26.38
2022-09-14T12:48:46.623Z,26.54
2022-09-14T12:51:14.197Z,26.35
2022-09-14T12:53:41.280Z,26.39
2022-09-14T12:56:12.801Z,26.22
2022-09-14T12:58:51.050Z,26.39
2022-09-14T13:01:20.775Z,26.78
2022-09-14T13:03:50.715Z,26.83
2022-09-14T13:06:17.684Z,26.79
2022-09-14T13:08:45.467Z,26.70
2022-09-14T13:11:18.400Z,26.69
2022-09-14T13:13:45.395Z,26.71
2022-09-14T13:16:13.335Z,26.71
2022-09-14T13:18:40.276Z,26.85
2022-09-14T13:21:18.240Z,27.07
2022-09-14T13:23:45.091Z,27.11
2022-09-14T13:26:17.049Z,26.96
2022-09-14T13:28:45.339Z,26.99
2022-09-14T13:31:13.585Z,26.72
2022-09-14T13:33:45.254Z,26.53
2022-09-14T13:36:15.519Z,26.74
2022-09-14T13:38:42.203Z,26.36
2022-09-14T13:41:13.536Z,26.30
2022-09-14T13:43:41.340Z,26.71
2022-09-14T13:46:08.331Z,26.84
2022-09-14T13:48:36.092Z,27.13
2022-09-14T13:51:03.068Z,26.78
2022-09-14T13:53:38.684Z,25.28
2022-09-14T13:56:26.649Z,25.94
2022-09-14T13:59:08.661Z,26.51
2022-09-14T14:01:38.245Z,26.43
2022-09-14T14:04:05.303Z,26.59
2022-09-14T14:06:32.718Z,26.66
2022-09-14T14:09:06.658Z,26.32
2022-09-14T14:11:41.203Z,26.23
2022-09-14T14:14:14.119Z,26.50
2022-09-14T14:16:41.208Z,26.57
2022-09-14T14:19:27.294Z,26.68
2022-09-14T14:22:11.655Z,26.76
2022-09-14T14:24:49.885Z,26.55
2022-09-14T14:27:31.619Z,26.94
2022-09-14T14:29:59.347Z,27.06
2022-09-14T14:32:26.311Z,26.75
2022-09-14T14:34:53.464Z,26.74
2022-09-14T14:37:20.350Z,26.51
2022-09-14T14:39:49.792Z,26.31
2022-09-14T14:42:16.936Z,26.06
2022-09-14T14:44:44.105Z,26.15
2022-09-14T14:47:12.653Z,26.43
2022-09-14T14:49:39.359Z,26.56
2022-09-14T14:52:06.851Z,26.61
2022-09-14T14:54:33.870Z,26.55
2022-09-14T14:57:02.195Z,26.34
2022-09-14T14:59:29.521Z,26.29
2022-09-14T15:01:56.943Z,25.90
2022-09-14T15:04:23.690Z,26.35
2022-09-14T15:06:50.644Z,26.05
2022-09-14T15:09:22.538Z,26.16
2022-09-14T15:11:49.957Z,26.41
2022-09-14T15:14:18.862Z,26.33
2022-09-14T15:16:46.015Z,26.63
2022-09-14T15:19:12.790Z,26.41
2022-09-14T15:21:40.539Z,26.48
2022-09-14T15:24:07.522Z,26.53
2022-09-14T15:26:34.501Z,26.38
2022-09-14T15:29:01.933Z,26.19
2022-09-14T15:31:28.845Z,26.32
2022-09-14T15:33:55.679Z,26.06
2022-09-14T15:36:36.097Z,26.08
2022-09-14T15:39:03.241Z,26.35
2022-09-14T15:41:30.187Z,26.35
2022-09-14T15:43:56.963Z,26.37
2022-09-14T15:46:23.648Z,26.24
2022-09-14T15:48:50.720Z,26.32
2022-09-14T15:51:19.636Z,26.02
2022-09-14T15:53:47.166Z,25.86
2022-09-14T15:56:14.843Z,26.11
2022-09-14T15:58:47.278Z,26.15
2022-09-14T16:01:15.967Z,26.23
2022-09-14T16:03:43.212Z,26.13
2022-09-14T16:06:10.451Z,26.09
2022-09-14T16:19:16.137Z,24.46
2022-09-14T16:21:43.348Z,24.46
2022-09-14T16:24:15.078Z,24.59
2022-09-14T16:26:41.892Z,25.09
2022-09-14T16:29:11.568Z,25.20
2022-09-14T16:31:38.846Z,25.24
2022-09-14T16:34:06.855Z,25.27
2022-09-14T16:36:34.897Z,25.34
2022-09-14T16:39:02.358Z,25.51
2022-09-14T16:41:29.675Z,25.33
2022-09-14T16:43:57.234Z,25.40
2022-09-14T16:46:24.270Z,25.42
2022-09-14T16:48:51.319Z,25.41
2022-09-14T16:51:22.392Z,25.40
2022-09-14T16:53:49.709Z,25.39
2022-09-14T16:56:17.630Z,25.40
2022-09-14T16:58:45.559Z,25.32
2022-09-14T17:01:16.476Z,25.25
2022-09-14T17:03:44.114Z,25.26
2022-09-14T17:06:14.941Z,25.05
2022-09-14T17:08:43.951Z,25.04
2022-09-14T17:11:11.767Z,25.03
2022-09-14T17:13:38.550Z,24.89
2022-09-14T17:16:06.232Z,24.83
2022-09-14T17:18:33.727Z,24.88
2022-09-14T17:21:01.615Z,24.68
2022-09-14T17:23:28.626Z,24.60
2022-09-14T17:25:56.071Z,24.58
2022-09-14T17:28:23.934Z,24.61
2022-09-14T17:30:53.995Z,24.63
2022-09-14T17:33:21.261Z,24.24
2022-09-14T17:35:48.508Z,24.22
2022-09-14T17:38:15.686Z,24.10
2022-09-14T17:40:42.910Z,24.24
2022-09-14T17:43:09.990Z,24.23
2022-09-14T17:45:37.351Z,24.09
2022-09-14T17:48:08.635Z,24.09
2022-09-14T17:50:35.558Z,24.10
2022-09-14T17:53:02.478Z,24.11
2022-09-14T17:55:39.483Z,24.05
2022-09-14T17:58:06.456Z,23.69
2022-09-14T18:00:42.723Z,23.86
2022-09-14T18:03:09.975Z,23.78
2022-09-14T18:05:37.836Z,23.64
2022-09-14T18:08:04.788Z,23.70
2022-09-14T18:10:31.951Z,23.64
2022-09-14T18:12:58.971Z,23.60
2022-09-14T18:15:40.211Z,23.48
2022-09-14T18:18:07.961Z,23.53
2022-09-14T18:20:39.936Z,23.61
2022-09-14T18:23:08.922Z,23.56
2022-09-14T18:25:41.312Z,23.47
2022-09-14T18:28:10.015Z,23.30
2022-09-14T18:30:42.914Z,23.34
2022-09-14T18:33:11.029Z,23.44
2022-09-14T18:35:49.760Z,23.44
2022-09-14T18:38:17.357Z,23.17
2022-09-14T18:40:44.947Z,23.13
2022-09-14T18:43:12.464Z,23.19
2022-09-14T18:45:55.584Z,23.12
2022-09-14T18:48:24.253Z,23.00
2022-09-14T18:50:58.677Z,23.09
2022-09-14T18:53:26.203Z,23.01
2022-09-14T18:55:57.724Z,23.00
2022-09-14T18:58:25.114Z,22.84
2022-09-14T19:00:53.477Z,22.91
2022-09-14T19:03:21.199Z,22.87
2022-09-14T19:05:49.181Z,22.78
2022-09-14T19:08:16.285Z,22.80
2022-09-14T19:10:52.113Z,22.79
2022-09-14T19:13:19.599Z,22.81
2022-09-14T19:15:51.529Z,22.77
2022-09-14T19:18:18.872Z,22.78
2022-09-14T19:21:05.818Z,22.72
2022-09-14T19:23:37.246Z,22.84
2022-09-14T19:26:07.834Z,22.79
2022-09-14T19:28:35.738Z,22.61
2022-09-14T19:31:06.966Z,22.60
2022-09-14T19:33:34.336Z,22.56
2022-09-14T19:36:14.749Z,22.64
2022-09-14T19:38:42.356Z,22.61
2022-09-14T19:41:09.627Z,22.59
2022-09-14T19:43:37.772Z,22.56
2022-09-14T19:46:09.242Z,22.60
2022-09-14T19:48:36.521Z,22.66
2022-09-14T19:51:07.850Z,22.49
2022-09-14T19:53:35.910Z,22.60
2022-09-14T19:56:04.261Z,22.53
2022-09-14T19:58:34.379Z,22.41
2022-09-14T20:01:02.067Z,22.51
2022-09-14T20:03:29.415Z,22.40
2022-09-14T20:06:19.705Z,22.48
2022-09-14T20:08:47.393Z,22.47
2022-09-14T20:11:19.197Z,22.42
2022-09-14T20:13:48.591Z,22.55
2022-09-14T20:16:22.799Z,22.45
2022-09-14T20:18:50.279Z,22.31
2022-09-14T20:21:21.589Z,22.32
2022-09-14T20:24:14.165Z,22.43
2022-09-14T20:26:37.112Z,22.32
2022-09-14T20:29:03.885Z,22.39
2022-09-14T20:31:31.025Z,22.40
2022-09-14T20:33:58.341Z,22.27
2022-09-14T20:36:25.325Z,22.43
2022-09-14T20:38:56.032Z,22.43
2022-09-14T20:41:23.882Z,22.24
2022-09-14T20:43:50.769Z,22.48
2022-09-14T20:46:19.007Z,22.46
2022-09-14T20:48:46.701Z,22.38
2022-09-14T20:51:17.228Z,22.31
2022-09-14T20:53:47.353Z,22.46
2022-09-14T20:56:15.303Z,22.40
2022-09-14T20:58:42.433Z,22.60
2022-09-14T21:01:10.894Z,22.51
2022-09-14T21:03:40.229Z,22.51
2022-09-14T21:06:08.948Z,22.43
2022-09-14T21:08:36.471Z,22.49
2022-09-14T21:11:04.152Z,22.51
2022-09-14T21:13:30.858Z,22.48
2022-09-14T21:15:58.294Z,22.41
2022-09-14T21:18:25.042Z,22.35
2022-09-14T21:20:51.850Z,22.45
2022-09-14T21:23:18.867Z,22.54
2022-09-14T21:25:45.647Z,22.24
2022-09-14T21:28:12.321Z,22.58
2022-09-14T21:30:39.344Z,22.43
2022-09-14T21:33:08.112Z,22.44
2022-09-14T21:35:34.890Z,22.31
2022-09-14T21:38:01.827Z,22.34
2022-09-14T21:40:28.653Z,22.39
2022-09-14T21:42:55.378Z,22.44
2022-09-14T21:45:22.629Z,22.51
2022-09-14T21:47:49.871Z,22.43
2022-09-14T21:50:16.840Z,22.44
2022-09-14T21:52:44.732Z,22.41
2022-09-14T21:55:11.626Z,22.20
2022-09-14T21:57:38.337Z,22.25
2022-09-14T22:00:06.763Z,22.38
2022-09-14T22:02:34.482Z,22.19
2022-09-14T22:05:02.075Z,22.45
2022-09-14T22:07:29.296Z,22.54
2022-09-14T22:09:56.842Z,22.54
2022-09-14T22:12:23.800Z,22.52
2022-09-14T22:14:52.001Z,22.40
2022-09-14T22:17:18.678Z,22.34
2022-09-14T22:19:45.706Z,22.24
2022-09-14T22:22:12.796Z,22.08
2022-09-14T22:24:39.592Z,22.38
2022-09-14T22:27:09.844Z,22.52
2022-09-14T22:29:37.364Z,22.53
2022-09-14T22:32:07.125Z,22.52
2022-09-14T22:34:35.814Z,22.43
2022-09-14T22:37:02.655Z,22.56
2022-09-14T22:39:29.631Z,22.52
2022-09-14T22:41:56.603Z,22.41
2022-09-14T22:44:23.253Z,22.40
2022-09-14T22:46:49.999Z,22.34
2022-09-14T22:49:16.970Z,22.28
2022-09-14T22:51:43.644Z,22.38
2022-09-14T22:54:10.322Z,22.39
2022-09-14T22:56:38.179Z,22.39
2022-09-14T22:59:05.797Z,22.37
2022-09-14T23:01:34.607Z,22.33
2022-09-14T23:04:03.232Z,22.44
2022-09-14T23:06:37.330Z,22.39
2022-09-14T23:09:04.675Z,22.34
2022-09-14T23:11:31.426Z,22.49
2022-09-14T23:13:58.946Z,22.48
2022-09-14T23:16:27.429Z,22.60
2022-09-14T23:18:55.132Z,22.66
2022-09-14T23:21:21.899Z,22.72
2022-09-14T23:23:55.961Z,22.86
2022-09-14T23:26:23.155Z,22.87
2022-09-14T23:28:51.063Z,22.83
2022-09-14T23:31:19.293Z,22.55
2022-09-14T23:33:48.547Z,22.57
2022-09-14T23:36:15.491Z,22.74
2022-09-14T23:38:42.135Z,22.76
2022-09-14T23:41:08.858Z,22.77
2022-09-14T23:43:35.878Z,22.86
2022-09-14T23:46:02.647Z,22.80
2022-09-14T23:48:29.666Z,22.82
2022-09-14T23:50:57.589Z,22.82
2022-09-14T23:53:24.267Z,22.91
2022-09-14T23:55:51.197Z,22.86
2022-09-14T23:58:18.220Z,22.92
